Latest Weather Observations for Kalumburu

IDW60801

Issued at 3:32 pm WST Friday 30 January 2015 (issued every 30 minutes, with the page automatically refreshed every 10 minutes)

About weather observations | Map of weather stations | Latest weather observations for WA | Other Formats
Station Details ID: 001019 Name: KALUMBURU Lat: -14.30 Lon: 126.65 Height: 23.0 m
Data from the previous 72 hours. | See also: Recent months at Kalumburu
Date/Time
WST
Temp
°C
App
Temp
°C
Dew
Point
Rel
Hum
%
Delta-T
°C
Wind Press
QNH
hPa
Press
MSL
hPa
Rain
since 9 am
mm
Dir
 
Spd
km/h
Gust
km/h
Spd
kts
Gust
kts
30/03:30pm 32.0 34.3 22.7 58 6.4 NW 15 24 8 13 1005.3 1005.1 0.0
30/03:00pm 32.1 33.9 22.5 57 6.6 WNW 17 24 9 13 1005.5 1005.3 0.0
30/02:30pm 32.5 35.0 23.2 58 6.4 WNW 15 26 8 14 1005.4 1005.2 0.0
30/02:00pm 32.4 33.7 21.6 53 7.3 WNW 17 26 9 14 1005.3 1005.1 0.0
30/01:30pm 33.0 34.6 21.5 50 7.8 WNW 15 22 8 12 1005.5 1005.3 0.0
30/01:00pm 33.1 35.3 21.9 51 7.6 WNW 13 24 7 13 1005.8 1005.6 0.0
30/12:30pm 33.2 35.7 21.7 51 7.8 WNW 11 20 6 11 1006.4 1006.2 0.0
30/12:00pm 33.3 35.7 20.8 48 8.4 WSW 9 15 5 8 1007.1 1006.9 0.0
30/11:30am 32.6 34.5 20.5 49 8.1 W 11 22 6 12 1007.8 1007.6 0.0
30/11:00am 32.4 35.4 21.9 54 7.1 W 9 17 5 9 1008.1 1007.9 0.0
30/10:30am 32.3 35.9 23.0 58 6.4 SW 9 17 5 9 1008.6 1008.4 0.0
30/10:00am 32.1 35.1 21.9 54 6.9 WNW 9 13 5 7 1009.0 1008.8 0.0
30/09:30am 31.3 34.4 21.5 56 6.6 S 7 11 4 6 1009.1 1008.9 0.0
30/09:00am 30.7 34.7 22.8 62 5.4 W 6 9 3 5 1009.2 1009.0 0.0
30/08:30am 29.9 34.3 22.1 63 5.3 ESE 2 7 1 4 1009.1 1008.9 0.0
30/08:00am 28.4 33.5 22.6 71 3.9 CALM 0 6 0 3 1009.1 1008.9 0.0
30/07:30am 27.5 31.2 22.2 73 3.6 SSW 6 7 3 4 1008.7 1008.5 0.0
30/07:00am 27.1 31.4 22.7 77 3.0 SSE 4 7 2 4 1008.0 1007.8 0.0
30/06:30am 25.6 29.5 22.5 83 2.1 SSW 6 7 3 4 1007.9 1007.7 0.0
30/06:00am 25.2 30.0 22.9 87 1.6 SSW 2 7 1 4 1007.5 1007.3 0.0
30/05:30am 24.2 28.9 21.9 87 1.5 CALM 0 6 0 3 1007.1 1006.9 0.0
30/05:00am 24.4 28.8 22.1 87 1.5 S 2 6 1 3 1006.8 1006.6 0.0
30/04:30am 24.4 29.2 22.1 87 1.5 CALM 0 0 0 0 1006.5 1006.3 0.0
30/04:00am 24.6 29.5 22.3 87 1.5 CALM 0 0 0 0 1006.2 1006.0 0.0
30/03:30am 24.6 29.5 22.3 87 1.5 CALM 0 0 0 0 1006.3 1006.1 0.0
30/03:00am 24.8 29.7 22.3 86 1.7 CALM 0 0 0 0 1006.2 1006.0 0.0
30/02:30am 24.9 29.7 22.2 85 1.8 CALM 0 0 0 0 1006.3 1006.1 0.0
30/02:00am 25.3 30.1 22.2 83 2.1 CALM 0 0 0 0 1006.6 1006.4 0.0
30/01:30am 25.4 30.1 21.9 81 2.3 CALM 0 0 0 0 1006.9 1006.7 0.0
30/01:00am 26.1 29.5 21.7 77 2.9 S 6 9 3 5 1007.3 1007.1 0.0
30/12:30am 26.4 29.2 21.6 75 3.2 SSW 9 13 5 7 1007.8 1007.6 0.0
30/12:00am 26.6 30.4 22.4 78 2.8 S 6 7 3 4 1008.0 1007.8 0.0
 
Date/Time
WST
Temp
°C
App
Temp
°C
Dew
Point
Rel
Hum
%
Delta-T
°C
Wind Press
QNH
hPa
Press
MSL
hPa
Rain
since 9 am
mm
Dir
 
Spd
km/h
Gust
km/h
Spd
kts
Gust
kts
29/11:30pm 26.8 30.7 22.6 78 2.8 SSE 6 9 3 5 1008.3 1008.1 0.0
29/11:00pm 27.1 31.1 22.7 77 3.0 S 6 9 3 5 1008.8 1008.6 0.0
29/10:30pm 27.2 31.1 22.6 76 3.1 S 6 9 3 5 1008.9 1008.7 0.0
29/10:00pm 27.5 32.0 22.9 76 3.1 SW 4 6 2 3 1008.8 1008.6 0.0
29/09:30pm 27.6 32.8 22.8 75 3.3 CALM 0 6 0 3 1008.7 1008.5 0.0
29/09:00pm 27.7 31.8 22.2 72 3.7 WSW 4 11 2 6 1008.6 1008.4 0.0
29/08:30pm 28.2 31.8 22.0 69 4.2 WSW 6 9 3 5 1008.2 1008.0 0.0
29/08:00pm 28.5 31.8 21.8 67 4.5 WNW 7 13 4 7 1007.9 1007.7 0.0
29/07:30pm 28.4 32.0 22.4 70 4.1 WNW 7 11 4 6 1007.4 1007.2 0.0
29/07:00pm 28.6 32.2 22.3 68 4.3 WNW 7 13 4 7 1006.7 1006.5 0.0
29/06:30pm 29.3 32.3 22.0 64 4.9 WNW 9 15 5 8 1006.0 1005.8 0.0
29/06:00pm 29.7 33.0 21.9 63 5.3 WNW 7 11 4 6 1005.3 1005.1 0.0
29/05:30pm 30.2 33.2 22.6 63 5.2 N 11 15 6 8 1004.9 1004.7 0.0
29/05:00pm 30.6 33.1 22.5 62 5.5 N 13 20 7 11 1004.6 1004.4 0.0
29/04:30pm 31.7 36.4 24.3 65 5.2 N 7 11 4 6 1004.1 1003.9 0.0
29/04:00pm 30.9 34.3 23.3 64 5.3 NW 11 17 6 9 1003.8 1003.6 0.0
29/03:30pm 30.8 33.6 23.7 66 4.9 NNW 15 20 8 11 1003.7 1003.5 0.0
29/03:00pm 33.3 36.9 22.1 52 7.7 SW 6 9 3 5 1003.7 1003.5 0.0
29/02:30pm 34.0 37.3 21.8 49 8.3 NW 7 13 4 7 1003.9 1003.7 0.0
29/02:00pm 33.7 37.0 21.8 49 8.1 W 7 11 4 6 1004.3 1004.1 0.0
29/01:30pm 32.8 34.8 20.0 47 8.5 SSW 9 17 5 9 1004.6 1004.4 0.0
29/01:00pm 33.6 36.4 20.4 46 8.8 SSW 6 13 3 7 1005.0 1004.8 0.0
29/12:30pm 33.3 35.9 20.4 46 8.6 S 7 17 4 9 1005.4 1005.2 0.0
29/12:00pm 32.7 36.0 21.9 53 7.4 S 7 11 4 6 1006.1 1005.9 0.0
29/11:30am 31.7 34.3 21.2 53 7.1 SSW 9 13 5 7 1006.7 1006.5 0.0
29/11:00am 31.0 34.3 21.8 58 6.2 SSW 7 13 4 7 1007.3 1007.1 0.0
29/10:30am 30.5 33.2 21.3 58 6.2 SSW 9 11 5 6 1007.6 1007.4 0.0
29/10:00am 30.7 34.9 23.4 65 5.0 S 7 11 4 6 1007.8 1007.6 0.0
29/09:30am 29.9 33.5 22.3 63 5.2 SSW 7 11 4 6 1008.1 1007.9 0.0
29/09:00am 29.5 32.7 21.2 61 5.6 SW 6 13 3 7 1008.4 1008.2 8.4
29/08:30am 29.1 32.5 21.6 64 5.0 ENE 6 7 3 4 1008.7 1008.5 8.4
29/08:00am 27.3 29.6 21.3 69 4.0 E 11 20 6 11 1008.8 1008.6 8.4
29/07:30am 27.4 30.7 22.6 75 3.3 ESE 9 17 5 9 1009.0 1008.8 8.4
29/07:00am 26.8 30.1 22.6 78 2.8 E 9 15 5 8 1008.9 1008.7 8.4
29/06:30am 24.9 29.0 23.0 89 1.3 NE 6 9 3 5 1008.0 1007.8 8.4
29/06:00am 23.7 28.4 22.0 90 1.1 CALM 0 4 0 2 1007.3 1007.1 8.4
29/05:30am 23.4 27.9 21.5 89 1.3 CALM 0 7 0 4 1006.6 1006.4 8.4
29/05:00am 23.5 27.5 21.4 88 1.4 SSE 2 6 1 3 1006.2 1006.0 8.4
29/04:30am 23.5 26.8 21.4 88 1.4 SSE 6 7 3 4 1005.8 1005.6 8.4
29/04:00am 23.8 27.2 21.7 88 1.4 SSE 6 9 3 5 1005.3 1005.1 8.4
29/03:30am 23.9 27.5 22.0 89 1.3 SSE 6 9 3 5 1005.0 1004.8 8.4
29/03:00am 23.9 27.4 21.8 88 1.4 SSE 6 11 3 6 1004.9 1004.7 8.4
29/02:30am 23.8 27.7 21.9 89 1.3 S 4 7 2 4 1004.8 1004.6 8.4
29/02:00am 23.8 28.5 21.9 89 1.3 CALM 0 0 0 0 1004.8 1004.6 8.4
29/01:30am 23.8 27.6 21.7 88 1.4 S 4 7 2 4 1005.3 1005.1 8.4
29/01:00am 23.7 28.2 21.6 88 1.4 CALM 0 0 0 0 1005.9 1005.7 8.4
29/12:30am 23.6 26.9 21.5 88 1.4 S 6 9 3 5 1006.6 1006.4 8.4
29/12:00am 23.6 26.7 21.5 88 1.4 SSE 7 9 4 5 1006.9 1006.7 8.4
 
Date/Time
WST
Temp
°C
App
Temp
°C
Dew
Point
Rel
Hum
%
Delta-T
°C
Wind Press
QNH
hPa
Press
MSL
hPa
Rain
since 9 am
mm
Dir
 
Spd
km/h
Gust
km/h
Spd
kts
Gust
kts
28/11:30pm 23.7 27.0 21.4 87 1.5 SSW 6 9 3 5 1007.6 1007.4 8.2
28/11:00pm 24.0 27.1 21.5 86 1.7 SSW 7 13 4 7 1007.6 1007.4 8.0
28/10:30pm 24.1 28.7 22.4 90 1.1 SSE 2 7 1 4 1007.5 1007.3 8.0
28/10:00pm 23.9 28.2 22.0 89 1.3 SE 2 7 1 4 1007.6 1007.4 8.0
28/09:30pm 23.8 28.0 21.7 88 1.4 S 2 6 1 3 1008.0 1007.8 7.4
28/09:00pm 23.7 25.8 21.0 85 1.8 SSW 11 17 6 9 1007.9 1007.7 5.2
28/08:30pm 24.2 27.3 21.5 85 1.8 SW 7 9 4 5 1006.9 1006.7 3.6
28/08:00pm 24.3 27.3 21.2 83 2.0 NE 7 9 4 5 1006.0 1005.8 3.2
28/07:30pm 24.6 28.0 21.7 84 1.9 N 6 9 3 5 1006.4 1006.2 3.2
28/07:00pm 25.8 29.4 23.1 85 1.8 WSW 9 19 5 10 1006.4 1006.2 3.2
28/06:30pm 25.3 30.1 22.8 86 1.7 ENE 2 7 1 4 1005.7 1005.5 3.2
28/06:00pm 25.2 29.1 22.5 85 1.8 E 6 7 3 4 1004.8 1004.6 3.2
28/05:30pm 25.5 30.0 23.0 86 1.7 NNE 4 7 2 4 1004.7 1004.5 3.2
28/05:00pm 25.3 29.0 22.6 85 1.8 E 7 9 4 5 1004.1 1003.9 3.2
28/04:30pm 25.5 29.4 22.6 84 2.0 SE 6 13 3 7 1003.7 1003.5 3.2
28/04:00pm 27.2 30.2 23.4 80 2.6 ENE 13 19 7 10 1003.5 1003.3 3.2
28/03:30pm 30.8 33.8 22.7 62 5.5 NW 11 19 6 10 1003.0 1002.8 0.0
28/03:00pm 32.3 34.5 23.3 59 6.2 NW 17 24 9 13 1002.4 1002.2 0.0
28/02:30pm 31.4 33.9 23.8 64 5.3 NW 17 30 9 16 1002.9 1002.7 0.0
28/02:00pm 32.2 34.4 24.3 63 5.5 NNW 20 32 11 17 1003.0 1002.8 0.0
28/01:30pm 32.8 36.1 25.1 64 5.5 NNW 17 24 9 13 1003.4 1003.2 0.0
28/01:00pm 33.1 36.6 25.4 64 5.5 NNW 17 26 9 14 1003.8 1003.6 0.0
28/12:30pm 33.4 37.7 23.7 56 6.8 WNW 7 11 4 6 1004.1 1003.9 0.0
28/12:00pm 33.5 37.7 23.2 54 7.2 SSE 6 9 3 5 1004.6 1004.4 0.0
28/11:30am 33.2 37.7 22.9 54 7.1 SSW 4 9 2 5 1005.1 1004.9 0.0
28/11:00am 32.6 36.5 23.0 57 6.6 SSW 7 11 4 6 1005.5 1005.3 0.0
28/10:30am 32.1 36.0 22.5 57 6.6 SSW 6 11 3 6 1006.1 1005.9 0.0
28/10:00am 31.4 35.9 24.0 65 5.2 WNW 7 15 4 8 1006.5 1006.3 0.0
28/09:30am 31.1 35.6 23.7 64 5.1 SSE 6 11 3 6 1006.9 1006.7 0.0
28/09:00am 30.3 34.5 23.2 65 4.9 SSW 6 11 3 6 1006.9 1006.7 14.0
28/08:30am 29.7 34.1 23.4 69 4.3 S 6 9 3 5 1007.1 1006.9 13.8
28/08:00am 28.5 32.6 23.0 72 3.8 SW 6 9 3 5 1007.0 1006.8 13.8
28/07:30am 27.5 31.5 23.1 77 3.0 SSW 7 11 4 6 1006.6 1006.4 13.8
28/07:00am 27.0 31.3 23.7 82 2.3 S 7 11 4 6 1006.5 1006.3 13.8
28/06:30am 26.2 30.6 23.5 85 1.8 S 6 9 3 5 1006.5 1006.3 13.8
28/06:00am 24.6 29.8 22.8 90 1.2 CALM 0 0 0 0 1006.4 1006.2 13.8
28/05:30am 24.1 27.9 22.4 90 1.1 SE 6 9 3 5 1006.2 1006.0 13.8
28/05:00am 24.3 28.0 22.6 90 1.1 SSW 7 11 4 6 1006.1 1005.9 13.8
28/04:30am 24.2 28.1 22.5 90 1.1 SSE 6 7 3 4 1005.8 1005.6 13.8
28/04:00am 24.3 28.2 22.6 90 1.1 S 6 9 3 5 1005.4 1005.2 13.8
28/03:30am 24.1 29.0 22.4 90 1.1 CALM 0 0 0 0 1005.1 1004.9 13.8
28/03:00am 24.4 29.5 22.7 90 1.1 CALM 0 6 0 3 1005.1 1004.9 13.8
28/02:30am 24.5 29.6 22.7 90 1.2 CALM 0 0 0 0 1005.2 1005.0 13.8
28/02:00am 24.6 29.8 22.8 90 1.2 CALM 0 0 0 0 1005.3 1005.1 13.8
28/01:30am 24.6 29.0 22.8 90 1.2 WSW 4 7 2 4 1005.4 1005.2 13.8
28/01:00am 24.6 29.8 22.8 90 1.2 CALM 0 0 0 0 1005.5 1005.3 13.8
28/12:30am 24.4 29.4 22.5 89 1.3 CALM 0 0 0 0 1005.6 1005.4 13.8
28/12:00am 24.4 29.4 22.5 89 1.3 CALM 0 0 0 0 1005.7 1005.5 13.8
 
Date/Time
WST
Temp
°C
App
Temp
°C
Dew
Point
Rel
Hum
%
Delta-T
°C
Wind Press
QNH
hPa
Press
MSL
hPa
Rain
since 9 am
mm
Dir
 
Spd
km/h
Gust
km/h
Spd
kts
Gust
kts
27/11:30pm 24.7 29.9 22.8 89 1.3 CALM 0 0 0 0 1006.4 1006.2 13.8
27/11:00pm 24.8 29.6 22.9 89 1.3 WSW 2 6 1 3 1006.9 1006.7 13.8
27/10:30pm 24.7 29.5 22.8 89 1.3 WSW 2 6 1 3 1007.3 1007.1 13.8
27/10:00pm 24.7 29.1 22.8 89 1.3 WSW 4 7 2 4 1007.2 1007.0 13.8
27/09:30pm 24.7 29.1 22.8 89 1.3 SSE 4 7 2 4 1007.1 1006.9 13.8
27/09:00pm 24.7 28.7 22.8 89 1.3 SW 6 7 3 4 1007.8 1007.6 13.8
27/08:30pm 24.6 28.0 22.7 89 1.3 W 9 17 5 9 1007.9 1007.7 13.2
27/08:00pm 24.4 27.7 22.5 89 1.3 E 9 11 5 6 1007.5 1007.3 12.4
27/07:30pm 24.4 28.3 22.5 89 1.3 SSE 6 11 3 6 1008.1 1007.9 10.6
27/07:00pm 24.7 28.5 22.8 89 1.3 SSW 7 13 4 7 1008.7 1008.5 8.8
27/06:30pm 24.6 28.1 22.1 86 1.7 SW 7 15 4 8 1008.6 1008.4 4.6
27/06:00pm 25.9 29.0 22.8 83 2.1 WSW 11 17 6 9 1007.9 1007.7 0.2
27/05:30pm 25.8 30.2 22.1 80 2.5 WNW 2 7 1 4 1006.5 1006.3 0.0
27/05:00pm 25.6 28.8 22.3 82 2.2 SW 9 19 5 10 1005.6 1005.4 0.0
27/04:30pm 25.7 29.7 22.0 80 2.5 SSE 4 7 2 4 1004.2 1004.0 0.0
27/04:00pm 26.7 29.2 21.7 74 3.3 SSW 11 20 6 11 1004.3 1004.1 0.0

Other Formats:

Comma delimited format used in spreadsheet applications
http://www.bom.gov.au/fwo/IDW60801/IDW60801.94100.axf

JavaScript Object Notation format (JSON) in row-major order
http://www.bom.gov.au/fwo/IDW60801/IDW60801.94100.json